Time;durP1;ratioP1;P1;durP2;ratioP2;P2;SDS_P1;SDS_P2;PMS_P1;PMS_P2;Temp;Humidity;BMP_temperature;BMP_pressure;BME280_temperature;BME280_humidity;BME280_pressure;Samples;Min_cycle;Max_cycle;Signal;HPM_P1;HPM_P2
2021/12/28 00:00:19;;;;;;;39.10;29.00;;;;;;;0.80;91.34;99999.84;5027669;28;20559;-42
2021/12/28 00:02:49;;;;;;;42.60;29.33;;;;;;;0.80;91.33;99993.78;5012691;28;20463;-39
2021/12/28 00:05:18;;;;;;;46.67;31.63;;;;;;;0.84;91.72;99995.09;5012029;28;20532;-43
2021/12/28 00:07:46;;;;;;;43.93;30.57;;;;;;;0.85;91.63;99989.72;5027355;28;20547;-41
2021/12/28 00:10:16;;;;;;;45.63;32.17;;;;;;;0.85;91.31;99987.09;5026341;28;20432;-44
2021/12/28 00:12:44;;;;;;;61.53;42.33;;;;;;;0.86;91.40;99986.13;5011416;28;20453;-41
2021/12/28 00:15:33;;;;;;;54.30;32.60;;;;;;;0.87;92.40;99984.31;5013705;28;20435;-44
2021/12/28 00:18:04;;;;;;;54.43;35.70;;;;;;;0.91;92.11;99983.03;5025388;28;20500;-42
2021/12/28 00:20:34;;;;;;;43.20;31.03;;;;;;;0.91;92.06;99969.91;5022039;28;21023;-41
2021/12/28 00:23:04;;;;;;;41.03;30.83;;;;;;;0.91;92.44;99973.34;5014716;28;20454;-42
2021/12/28 00:25:32;;;;;;;36.67;27.70;;;;;;;0.93;92.55;99960.91;5021535;28;20439;-41
2021/12/28 00:28:00;;;;;;;43.47;31.00;;;;;;;0.95;92.76;99964.22;5019825;28;20471;-43
2021/12/28 00:30:29;;;;;;;37.53;28.97;;;;;;;0.92;92.57;99961.06;5026794;28;20457;-41
2021/12/28 00:32:56;;;;;;;40.43;29.27;;;;;;;0.94;92.16;99962.56;5027673;28;20543;-41
2021/12/28 00:35:30;;;;;;;40.93;30.10;;;;;;;0.97;92.90;99958.78;5020799;28;20435;-41
2021/12/28 00:37:57;;;;;;;44.57;31.17;;;;;;;0.96;92.37;99959.75;5012368;28;20998;-41
2021/12/28 00:40:25;;;;;;;39.40;29.27;;;;;;;0.96;92.41;99959.75;5019541;28;20477;-42
2021/12/28 00:42:53;;;;;;;38.90;27.97;;;;;;;0.96;92.63;99963.22;5015955;28;20464;-41
2021/12/28 00:45:21;;;;;;;36.33;28.73;;;;;;;0.97;92.25;99969.28;5019086;28;20528;-41
2021/12/28 00:47:49;;;;;;;42.73;29.27;;;;;;;0.99;92.44;99957.66;5019882;28;20457;-41
2021/12/28 00:50:18;;;;;;;41.53;28.87;;;;;;;1.00;92.11;99961.09;5026373;28;20439;-41
2021/12/28 00:52:49;;;;;;;43.57;30.70;;;;;;;1.01;92.64;99952.25;5005565;28;20468;-40
2021/12/28 00:55:18;;;;;;;43.40;29.40;;;;;;;1.00;92.21;99954.06;5025752;28;20428;-41
2021/12/28 00:57:46;;;;;;;38.73;28.80;;;;;;;1.02;92.34;99952.09;5027815;28;20462;-41
2021/12/28 01:00:18;;;;;;;38.00;26.90;;;;;;;1.04;92.40;99944.06;5016551;28;21056;-41
2021/12/28 01:02:46;;;;;;;35.93;27.80;;;;;;;1.05;92.11;99943.06;5021269;28;20848;-41
2021/12/28 01:05:15;;;;;;;37.73;27.30;;;;;;;1.05;92.39;99948.34;5011282;28;20468;-41
2021/12/28 01:07:43;;;;;;;38.00;28.33;;;;;;;1.08;91.82;99945.41;5025288;28;20466;-41
2021/12/28 01:10:14;;;;;;;36.93;27.20;;;;;;;1.07;92.38;99943.75;5018416;28;20429;-41
2021/12/28 01:12:42;;;;;;;40.80;29.10;;;;;;;1.04;92.24;99941.44;5024710;28;20554;-41
2021/12/28 01:15:11;;;;;;;42.67;29.77;;;;;;;1.04;91.76;99946.69;5024396;28;20483;-41
2021/12/28 01:17:39;;;;;;;47.47;30.00;;;;;;;1.06;91.84;99935.06;5028991;28;20551;-41
2021/12/28 01:20:11;;;;;;;43.13;29.63;;;;;;;1.08;91.56;99940.16;5019731;28;20470;-42
2021/12/28 01:22:39;;;;;;;40.93;30.83;;;;;;;1.10;91.50;99951.34;5020257;28;20547;-42
2021/12/28 01:25:09;;;;;;;36.13;28.93;;;;;;;1.12;91.91;99949.38;5033049;28;20436;-41
2021/12/28 01:27:38;;;;;;;40.47;28.50;;;;;;;1.14;91.30;99942.16;5023373;28;20452;-41
2021/12/28 01:30:09;;;;;;;40.20;30.30;;;;;;;1.15;92.02;99948.22;5021288;28;20467;-42
2021/12/28 01:32:37;;;;;;;37.93;28.50;;;;;;;1.17;92.00;99946.25;5026694;28;20491;-41
2021/12/28 01:35:07;;;;;;;39.13;28.23;;;;;;;1.18;91.98;99946.13;5032138;28;20443;-42
2021/12/28 01:37:35;;;;;;;35.53;26.40;;;;;;;1.21;91.68;99934.47;5028377;28;20531;-42
2021/12/28 01:40:05;;;;;;;41.20;28.40;;;;;;;1.22;91.80;99931.72;5028122;28;20508;-41
2021/12/28 01:42:33;;;;;;;37.93;27.07;;;;;;;1.24;92.09;99935.00;5023682;28;20480;-45
2021/12/28 01:45:02;;;;;;;40.03;28.40;;;;;;;1.21;91.72;99916.91;5021565;28;20433;-42
2021/12/28 01:47:30;;;;;;;44.83;28.50;;;;;;;1.24;91.59;99927.13;5028821;28;20470;-42
2021/12/28 01:49:58;;;;;;;35.00;26.67;;;;;;;1.26;91.35;99927.78;5027811;28;20435;-45
2021/12/28 01:52:25;;;;;;;43.60;28.57;;;;;;;1.28;91.34;99927.63;5030222;28;21067;-41
2021/12/28 01:54:53;;;;;;;37.80;28.43;;;;;;;1.25;91.70;99918.28;5018759;28;20529;-41
2021/12/28 01:57:21;;;;;;;35.93;27.00;;;;;;;1.30;92.00;99923.88;5029333;28;20552;-41
2021/12/28 01:59:51;;;;;;;45.07;28.57;;;;;;;1.30;91.99;99929.13;5021268;28;20845;-41
2021/12/28 02:02:20;;;;;;;40.27;26.30;;;;;;;1.34;92.37;99912.06;5022691;28;20455;-41
2021/12/28 02:04:51;;;;;;;42.30;28.37;;;;;;;1.32;92.13;99913.19;5020559;28;20433;-40
2021/12/28 02:07:18;;;;;;;35.63;30.10;;;;;;;1.32;91.79;99907.94;5021090;28;20445;-45
2021/12/28 02:09:46;;;;;;;37.50;29.00;;;;;;;1.32;91.86;99910.56;5027446;28;20437;-41
2021/12/28 02:12:13;;;;;;;43.23;30.43;;;;;;;1.31;91.74;99907.13;5026291;28;20467;-41
2021/12/28 02:14:44;;;;;;;38.70;29.63;;;;;;;1.30;91.90;99902.84;5018188;28;20432;-42
2021/12/28 02:17:13;;;;;;;35.37;28.90;;;;;;;1.31;91.61;99886.13;5029834;28;20777;-41
2021/12/28 02:19:43;;;;;;;44.47;29.43;;;;;;;1.32;91.92;99886.91;5020855;28;20433;-41
2021/12/28 02:22:12;;;;;;;37.37;28.10;;;;;;;1.36;91.49;99885.63;5022268;28;20540;-42
2021/12/28 02:24:39;;;;;;;39.20;27.30;;;;;;;1.36;91.83;99888.25;5014184;28;20434;-41
2021/12/28 02:27:07;;;;;;;41.77;30.30;;;;;;;1.34;91.58;99877.09;5031161;28;20436;-46
2021/12/28 02:29:34;;;;;;;36.67;26.90;;;;;;;1.35;91.45;99887.44;5017833;28;20433;-41
2021/12/28 02:32:02;;;;;;;38.83;27.50;;;;;;;1.37;91.79;99876.78;5013365;28;20429;-42
2021/12/28 02:34:30;;;;;;;41.93;29.83;;;;;;;1.33;91.80;99873.63;5019518;28;20800;-41
2021/12/28 02:36:57;;;;;;;39.50;29.20;;;;;;;1.33;92.11;99865.75;5013990;28;20425;-41
2021/12/28 02:39:26;;;;;;;35.70;26.80;;;;;;;1.33;91.58;99870.19;5011190;28;20437;-42
2021/12/28 02:41:54;;;;;;;37.33;28.17;;;;;;;1.31;91.56;99867.72;5028119;28;20472;-43
2021/12/28 02:44:22;;;;;;;43.03;31.20;;;;;;;1.32;92.24;99863.28;5021078;28;20996;-41
2021/12/28 02:46:49;;;;;;;38.20;29.10;;;;;;;1.32;92.01;99860.66;5026321;28;20437;-42
2021/12/28 02:49:17;;;;;;;40.70;29.13;;;;;;;1.31;92.20;99861.66;5018508;28;20473;-42
2021/12/28 02:51:46;;;;;;;39.73;27.80;;;;;;;1.29;92.45;99861.78;5014386;28;21026;-42
2021/12/28 02:54:13;;;;;;;39.20;29.23;;;;;;;1.27;92.99;99857.69;5013027;28;20445;-43
2021/12/28 02:56:42;;;;;;;45.43;29.17;;;;;;;1.21;92.60;99851.25;5023971;28;20439;-43
2021/12/28 02:59:10;;;;;;;35.10;27.07;;;;;;;1.20;92.78;99851.41;5019345;28;20999;-42
2021/12/28 03:01:40;;;;;;;38.30;28.13;;;;;;;1.17;92.31;99849.94;5019315;28;20555;-41
2021/12/28 03:04:08;;;;;;;37.83;28.37;;;;;;;1.13;92.10;99849.41;5013851;28;20515;-41
2021/12/28 03:06:36;;;;;;;37.10;26.27;;;;;;;1.12;92.40;99836.47;5014885;28;20438;-43
2021/12/28 03:09:06;;;;;;;36.43;29.50;;;;;;;1.11;91.87;99832.19;5014635;28;20820;-42
2021/12/28 03:11:34;;;;;;;44.03;30.57;;;;;;;1.09;91.70;99840.22;5026059;28;20424;-45
2021/12/28 03:14:05;;;;;;;38.33;27.80;;;;;;;1.09;91.11;99823.66;5019624;28;20552;-42
2021/12/28 03:16:33;;;;;;;40.57;29.40;;;;;;;1.07;91.02;99841.38;5018442;28;20434;-41
2021/12/28 03:19:01;;;;;;;39.60;27.40;;;;;;;1.09;90.29;99829.72;5023431;28;20499;-43
2021/12/28 03:21:30;;;;;;;36.03;29.40;;;;;;;1.07;90.33;99829.06;5021000;28;20564;-41
2021/12/28 03:23:58;;;;;;;40.13;29.57;;;;;;;1.06;90.50;99827.41;5022469;28;20522;-42
2021/12/28 03:26:26;;;;;;;41.63;29.27;;;;;;;1.08;90.28;99814.94;5021229;28;20524;-44
2021/12/28 03:28:54;;;;;;;44.00;29.83;;;;;;;1.08;90.20;99822.81;5023199;28;20460;-41
2021/12/28 03:31:23;;;;;;;35.47;27.07;;;;;;;1.08;90.67;99814.13;5028984;28;20523;-42
2021/12/28 03:33:54;;;;;;;40.73;29.13;;;;;;;1.10;90.24;99812.19;5027968;28;20892;-41
2021/12/28 03:36:27;;;;;;;42.77;30.57;;;;;;;1.11;90.44;99809.38;5013707;28;20433;-42
2021/12/28 03:38:56;;;;;;;40.60;28.60;;;;;;;1.13;90.27;99807.41;5019022;28;20458;-41
2021/12/28 03:41:26;;;;;;;35.37;28.97;;;;;;;1.18;90.05;99809.56;5026992;28;20478;-41
2021/12/28 03:43:55;;;;;;;43.50;29.70;;;;;;;1.14;90.35;99800.34;5023454;28;20457;-41
2021/12/28 03:46:26;;;;;;;40.73;26.33;;;;;;;1.13;90.12;99798.72;5023430;28;20519;-42
2021/12/28 03:48:55;;;;;;;38.00;28.20;;;;;;;1.18;90.11;99806.94;5005351;28;20574;-41
2021/12/28 03:51:22;;;;;;;39.80;29.40;;;;;;;1.21;91.01;99800.53;5028421;28;20850;-41
2021/12/28 03:53:51;;;;;;;46.37;31.60;;;;;;;1.19;91.05;99798.09;5019551;28;20558;-42
2021/12/28 03:56:19;;;;;;;43.47;29.87;;;;;;;1.20;91.13;99789.22;5028552;28;20847;-41
2021/12/28 03:58:47;;;;;;;37.73;28.37;;;;;;;1.25;91.31;99783.50;5022133;28;20804;-41
2021/12/28 04:01:18;;;;;;;42.07;29.13;;;;;;;1.23;90.95;99783.63;5020301;28;20488;-41
2021/12/28 04:03:48;;;;;;;37.83;28.37;;;;;;;1.25;91.15;99786.13;5007652;28;20464;-41
2021/12/28 04:06:18;;;;;;;40.00;29.57;;;;;;;1.28;91.52;99791.06;5013426;28;20487;-41
2021/12/28 04:08:46;;;;;;;40.43;29.23;;;;;;;1.29;91.86;99780.38;5024386;28;20496;-41
2021/12/28 04:11:25;;;;;;;44.57;31.03;;;;;;;1.28;91.93;99783.19;5017049;28;20429;-41
2021/12/28 04:13:57;;;;;;;40.93;28.80;;;;;;;1.28;92.12;99784.00;5019034;28;20460;-42
2021/12/28 04:16:25;;;;;;;39.97;29.70;;;;;;;1.27;92.00;99774.47;5026100;28;20859;-41
2021/12/28 04:18:54;;;;;;;40.00;28.33;;;;;;;1.33;91.62;99773.81;5022703;28;20994;-41
2021/12/28 04:21:22;;;;;;;43.00;29.30;;;;;;;1.34;91.78;99772.84;5023475;28;20482;-42
2021/12/28 04:23:51;;;;;;;42.40;31.77;;;;;;;1.36;92.06;99773.50;5025742;28;20825;-42
2021/12/28 04:26:24;;;;;;;42.57;29.07;;;;;;;1.39;92.65;99786.31;5028165;28;20432;-41
2021/12/28 04:28:52;;;;;;;36.40;29.37;;;;;;;1.39;92.54;99783.69;5011982;28;20457;-43
2021/12/28 04:31:20;;;;;;;39.33;26.57;;;;;;;1.42;92.71;99777.28;5011554;28;20439;-44
2021/12/28 04:33:48;;;;;;;42.60;29.10;;;;;;;1.42;93.01;99779.91;5020615;28;20469;-42
2021/12/28 04:36:18;;;;;;;39.00;28.67;;;;;;;1.38;92.55;99768.06;5022636;28;20432;-41
2021/12/28 04:38:47;;;;;;;42.30;27.77;;;;;;;1.39;92.64;99772.34;5008913;28;20548;-41
2021/12/28 04:41:15;;;;;;;38.33;29.47;;;;;;;1.38;92.93;99771.53;5015758;28;20877;-41
2021/12/28 04:43:43;;;;;;;37.63;30.40;;;;;;;1.37;93.16;99759.41;5022024;28;20475;-44
2021/12/28 04:46:11;;;;;;;38.60;28.83;;;;;;;1.40;93.10;99753.81;5018129;28;20532;-43
2021/12/28 04:48:39;;;;;;;40.43;29.37;;;;;;;1.39;92.83;99749.53;5012286;28;20461;-43
2021/12/28 04:51:07;;;;;;;40.03;28.50;;;;;;;1.41;92.75;99754.63;5017991;28;20443;-42
2021/12/28 04:53:36;;;;;;;45.60;30.30;;;;;;;1.44;92.70;99755.13;5013926;28;20989;-43
2021/12/28 04:56:05;;;;;;;38.37;27.90;;;;;;;1.45;93.21;99756.78;5025226;28;20437;-41
2021/12/28 04:58:32;;;;;;;40.73;28.30;;;;;;;1.44;93.46;99755.13;5027435;28;20458;-41
2021/12/28 05:01:00;;;;;;;41.30;31.07;;;;;;;1.47;93.00;99759.22;5023803;28;20928;-41
2021/12/28 05:03:28;;;;;;;39.30;29.17;;;;;;;1.47;93.61;99754.81;5018366;28;20468;-42
2021/12/28 05:05:56;;;;;;;44.60;29.67;;;;;;;1.49;93.33;99754.66;5025950;28;20520;-41
2021/12/28 05:08:24;;;;;;;46.53;30.30;;;;;;;1.48;93.66;99750.38;5029013;28;20544;-42
2021/12/28 05:10:54;;;;;;;37.17;30.00;;;;;;;1.48;93.30;99740.69;5021621;28;20444;-41
2021/12/28 05:13:22;;;;;;;43.53;32.70;;;;;;;1.47;93.84;99733.78;5010974;28;20500;-42
2021/12/28 05:15:49;;;;;;;40.37;28.70;;;;;;;1.47;93.71;99732.97;5025293;28;20432;-41
2021/12/28 05:18:17;;;;;;;35.80;28.07;;;;;;;1.43;93.35;99724.59;5023272;28;20483;-43
2021/12/28 05:20:45;;;;;;;40.20;29.43;;;;;;;1.45;93.49;99722.63;5026567;28;20437;-41
2021/12/28 05:23:14;;;;;;;46.27;28.63;;;;;;;1.45;93.71;99725.25;5027371;28;20551;-42
2021/12/28 05:25:41;;;;;;;39.43;30.50;;;;;;;1.43;93.58;99716.72;5020359;28;20998;-43
2021/12/28 05:28:10;;;;;;;37.93;27.80;;;;;;;1.43;93.19;99721.16;5026438;28;21202;-41
2021/12/28 05:30:38;;;;;;;37.47;29.80;;;;;;;1.40;93.57;99719.69;5033635;28;20528;-41
2021/12/28 05:33:06;;;;;;;38.40;28.10;;;;;;;1.41;93.09;99713.41;5029591;28;20832;-41
2021/12/28 05:35:34;;;;;;;41.90;30.07;;;;;;;1.41;93.19;99708.16;5027857;28;20515;-42
2021/12/28 05:38:02;;;;;;;45.43;31.33;;;;;;;1.42;93.25;99707.19;5024509;28;20898;-43
2021/12/28 05:40:30;;;;;;;46.47;30.53;;;;;;;1.40;93.42;99700.47;5029571;28;20437;-46
2021/12/28 05:42:57;;;;;;;44.60;29.67;;;;;;;1.40;93.71;99705.72;5023885;28;20464;-41
2021/12/28 05:45:26;;;;;;;36.07;29.50;;;;;;;1.39;93.29;99699.63;5023231;28;20448;-41
2021/12/28 05:47:54;;;;;;;43.33;29.97;;;;;;;1.40;92.84;99709.16;5017925;28;20479;-42
2021/12/28 05:50:22;;;;;;;38.27;29.37;;;;;;;1.39;92.83;99704.06;5018582;28;20532;-43
2021/12/28 05:52:52;;;;;;;42.17;30.60;;;;;;;1.38;92.77;99702.41;5021354;28;20464;-43
2021/12/28 05:55:20;;;;;;;47.67;32.43;;;;;;;1.39;93.15;99698.81;5016592;28;20440;-44
2021/12/28 05:57:48;;;;;;;43.87;31.63;;;;;;;1.40;92.58;99703.09;5021419;28;20478;-41
2021/12/28 06:00:17;;;;;;;44.17;30.47;;;;;;;1.39;92.94;99709.31;5006809;28;20471;-41
2021/12/28 06:02:46;;;;;;;40.73;31.27;;;;;;;1.40;92.59;99701.28;5015066;28;20987;-43
2021/12/28 06:05:14;;;;;;;41.23;32.07;;;;;;;1.42;92.87;99701.09;5015667;28;20491;-41
2021/12/28 06:07:42;;;;;;;40.17;30.63;;;;;;;1.47;92.72;99706.69;5019596;28;20452;-41
2021/12/28 06:10:10;;;;;;;44.10;32.03;;;;;;;1.46;93.28;99695.38;5021722;28;20437;-41
2021/12/28 06:12:38;;;;;;;42.63;30.53;;;;;;;1.47;93.43;99702.25;5015802;28;20458;-41
2021/12/28 06:15:06;;;;;;;46.50;32.00;;;;;;;1.48;93.35;99698.66;5023553;28;20509;-41
2021/12/28 06:17:34;;;;;;;44.33;32.13;;;;;;;1.47;93.58;99689.13;5023526;28;20562;-41
2021/12/28 06:20:04;;;;;;;44.20;31.20;;;;;;;1.49;93.33;99694.22;5029022;28;20442;-41
2021/12/28 06:22:33;;;;;;;46.07;33.70;;;;;;;1.48;93.52;99685.53;5019462;28;20477;-45
2021/12/28 06:25:00;;;;;;;46.57;31.90;;;;;;;1.46;93.40;99679.63;5016068;28;20805;-41
2021/12/28 06:27:28;;;;;;;38.27;30.60;;;;;;;1.47;93.74;99686.50;5029413;28;20523;-41
2021/12/28 06:29:56;;;;;;;45.20;32.77;;;;;;;1.46;93.43;99684.03;5017518;28;20445;-42
2021/12/28 06:32:23;;;;;;;47.57;33.20;;;;;;;1.45;93.40;99685.03;5003600;28;20468;-42
2021/12/28 06:34:51;;;;;;;43.00;31.77;;;;;;;1.47;93.38;99690.91;5021781;28;20437;-43
2021/12/28 06:37:20;;;;;;;42.83;31.00;;;;;;;1.48;93.02;99689.94;5025876;28;20808;-41
2021/12/28 06:39:48;;;;;;;43.83;31.87;;;;;;;1.49;93.24;99684.50;5027305;28;20441;-41
2021/12/28 06:42:16;;;;;;;48.63;32.47;;;;;;;1.46;93.60;99679.63;5012766;28;20460;-43
2021/12/28 06:44:45;;;;;;;43.20;31.70;;;;;;;1.48;93.52;99677.63;5024657;28;20970;-41
2021/12/28 06:47:14;;;;;;;45.07;32.63;;;;;;;1.46;93.20;99673.53;5026264;28;20440;-41
2021/12/28 06:49:41;;;;;;;42.37;31.90;;;;;;;1.44;93.53;99672.84;5014638;28;20455;-42
2021/12/28 06:52:09;;;;;;;46.67;33.50;;;;;;;1.45;93.03;99679.78;5013679;28;20461;-41
2021/12/28 06:54:39;;;;;;;44.77;32.30;;;;;;;1.47;93.17;99686.50;5016018;28;20545;-42
2021/12/28 06:57:08;;;;;;;48.87;33.57;;;;;;;1.47;93.10;99686.50;5026096;28;20506;-43
2021/12/28 06:59:37;;;;;;;50.23;35.27;;;;;;;1.48;93.11;99684.69;5023582;28;20440;-41
2021/12/28 07:02:07;;;;;;;47.53;31.90;;;;;;;1.48;93.26;99682.91;5022712;28;20417;-39
2021/12/28 07:04:35;;;;;;;49.97;33.97;;;;;;;1.47;93.09;99676.00;5016976;28;20478;-40
2021/12/28 07:07:04;;;;;;;47.10;31.30;;;;;;;1.45;93.54;99677.97;5017735;28;20444;-40
2021/12/28 07:09:32;;;;;;;41.57;30.90;;;;;;;1.46;92.93;99678.78;5014278;28;20517;-41
2021/12/28 07:12:04;;;;;;;48.90;33.13;;;;;;;1.48;93.25;99679.44;5015501;28;20925;-40
2021/12/28 07:14:32;;;;;;;45.47;33.97;;;;;;;1.50;93.12;99674.84;5017075;28;20441;-41
2021/12/28 07:17:01;;;;;;;45.63;34.17;;;;;;;1.50;93.37;99673.03;5018900;28;20442;-40
2021/12/28 07:19:28;;;;;;;48.53;34.30;;;;;;;1.49;93.24;99660.88;5022216;28;20775;-40
2021/12/28 07:21:57;;;;;;;46.97;34.57;;;;;;;1.50;93.06;99664.31;5021402;28;20441;-40
2021/12/28 07:24:24;;;;;;;46.33;33.20;;;;;;;1.50;92.80;99664.31;5016902;28;20469;-43
2021/12/28 07:26:52;;;;;;;43.70;32.17;;;;;;;1.50;92.57;99659.91;5020614;28;20871;-40
2021/12/28 07:29:21;;;;;;;52.60;35.13;;;;;;;1.49;92.38;99663.50;5013151;28;20620;-42
2021/12/28 07:31:49;;;;;;;45.03;32.47;;;;;;;1.49;92.28;99666.13;5013865;28;20433;-40
2021/12/28 07:34:18;;;;;;;50.90;34.07;;;;;;;1.52;91.78;99672.88;5015070;28;20429;-41
2021/12/28 07:36:45;;;;;;;47.77;36.30;;;;;;;1.50;92.11;99661.69;5014705;28;20441;-40
2021/12/28 07:39:13;;;;;;;46.70;33.77;;;;;;;1.47;91.89;99660.22;5014414;28;21041;-40
2021/12/28 07:41:41;;;;;;;41.17;33.67;;;;;;;1.45;91.41;99664.84;5016012;28;20441;-40
2021/12/28 07:44:09;;;;;;;53.50;35.73;;;;;;;1.47;90.93;99660.22;5017875;28;20560;-41
2021/12/28 07:46:38;;;;;;;49.80;35.30;;;;;;;1.48;90.57;99654.00;5018695;28;20452;-40
2021/12/28 07:49:06;;;;;;;56.50;36.60;;;;;;;1.42;90.26;99654.66;5015822;28;20465;-40
2021/12/28 07:51:33;;;;;;;54.03;36.30;;;;;;;1.42;89.50;99646.78;5026078;28;20436;-40
2021/12/28 07:54:02;;;;;;;52.20;34.10;;;;;;;1.40;88.98;99648.75;4999884;28;20548;-41
2021/12/28 07:56:29;;;;;;;50.73;35.57;;;;;;;1.37;88.42;99643.81;5012090;28;20432;-41
2021/12/28 07:58:57;;;;;;;52.83;35.80;;;;;;;1.39;88.04;99641.03;5008290;28;20460;-40
2021/12/28 08:01:24;;;;;;;56.87;38.77;;;;;;;1.34;87.57;99638.91;5016116;28;20429;-40
2021/12/28 08:03:54;;;;;;;50.37;35.93;;;;;;;1.36;86.55;99646.59;5017947;28;20552;-40
2021/12/28 08:06:21;;;;;;;53.60;37.30;;;;;;;1.38;86.19;99649.88;5025094;28;20536;-42
2021/12/28 08:08:50;;;;;;;54.70;37.80;;;;;;;1.39;85.84;99649.72;5026136;28;20460;-40
2021/12/28 08:11:17;;;;;;;51.93;35.97;;;;;;;1.38;85.83;99647.25;5024981;28;20511;-41
2021/12/28 08:13:45;;;;;;;47.63;36.97;;;;;;;1.42;85.75;99646.78;5020650;28;20456;-40
2021/12/28 08:16:12;;;;;;;55.30;37.97;;;;;;;1.45;86.15;99641.19;5015851;28;20436;-40
2021/12/28 08:18:40;;;;;;;52.33;37.30;;;;;;;1.44;85.52;99636.09;5025017;28;20526;-40
2021/12/28 08:21:09;;;;;;;51.03;37.73;;;;;;;1.45;85.66;99629.84;5021233;28;20496;-40
2021/12/28 08:23:37;;;;;;;50.27;34.83;;;;;;;1.48;85.77;99629.53;5021641;28;20472;-40
2021/12/28 08:26:05;;;;;;;54.67;36.70;;;;;;;1.48;85.79;99640.03;5015355;28;20807;-40
2021/12/28 08:28:33;;;;;;;47.73;35.63;;;;;;;1.53;85.42;99638.53;5017992;28;20463;-40
2021/12/28 08:31:01;;;;;;;53.90;36.87;;;;;;;1.53;86.02;99638.53;5018685;28;20417;-41
2021/12/28 08:33:29;;;;;;;53.63;36.30;;;;;;;1.56;86.36;99634.75;5021609;28;20452;-40
2021/12/28 08:35:57;;;;;;;51.70;35.17;;;;;;;1.59;86.28;99624.75;5021357;28;20795;-40
2021/12/28 08:38:25;;;;;;;49.67;36.07;;;;;;;1.60;87.16;99617.69;5018805;28;20453;-48
2021/12/28 08:40:54;;;;;;;47.67;34.30;;;;;;;1.61;87.31;99619.34;5010970;28;20437;-39
2021/12/28 08:43:21;;;;;;;50.73;36.20;;;;;;;1.67;86.56;99624.72;5011478;28;20841;-40
2021/12/28 08:45:49;;;;;;;52.93;37.40;;;;;;;1.71;87.33;99619.97;5019432;28;20449;-40
2021/12/28 08:48:17;;;;;;;52.80;38.20;;;;;;;1.70;88.49;99617.50;5011732;28;20461;-40
2021/12/28 08:50:45;;;;;;;49.77;35.77;;;;;;;1.76;88.36;99619.47;5028336;28;20436;-41
2021/12/28 08:53:14;;;;;;;57.67;35.97;;;;;;;1.81;88.51;99623.25;5016194;28;20480;-40
2021/12/28 08:55:43;;;;;;;50.77;33.43;;;;;;;1.82;89.20;99611.75;5023474;28;20424;-40
2021/12/28 08:58:11;;;;;;;51.77;35.57;;;;;;;1.87;89.47;99609.44;5001917;28;20480;-41
2021/12/28 09:00:39;;;;;;;49.07;34.67;;;;;;;1.86;89.85;99606.94;5018679;28;20498;-40
2021/12/28 09:03:07;;;;;;;50.17;36.23;;;;;;;1.90;89.95;99614.34;5015950;28;20905;-41
2021/12/28 09:05:37;;;;;;;50.80;34.70;;;;;;;1.94;90.00;99604.31;5015703;28;20480;-41
2021/12/28 09:08:09;;;;;;;57.07;34.20;;;;;;;1.95;90.87;99611.19;5004453;28;20468;-40
2021/12/28 09:10:36;;;;;;;50.43;34.63;;;;;;;1.94;91.08;99607.75;5015235;28;20512;-43
2021/12/28 09:13:07;;;;;;;48.37;34.87;;;;;;;1.96;90.83;99608.41;5022442;28;20557;-40
2021/12/28 09:15:36;;;;;;;47.43;33.80;;;;;;;1.97;90.80;99601.34;5017191;28;20427;-40
2021/12/28 09:18:04;;;;;;;41.77;33.30;;;;;;;2.00;90.63;99601.00;5029769;28;20852;-42
2021/12/28 09:20:32;;;;;;;49.80;34.47;;;;;;;1.98;90.85;99595.09;5014473;28;20429;-40
2021/12/28 09:23:06;;;;;;;47.17;35.30;;;;;;;1.98;90.58;99589.81;5018318;28;20452;-40
2021/12/28 09:25:34;;;;;;;50.40;32.70;;;;;;;2.00;90.62;99585.25;5020224;28;20914;-42
2021/12/28 09:28:01;;;;;;;48.60;34.40;;;;;;;2.04;90.25;99583.88;5020742;28;20492;-41
2021/12/28 09:30:32;;;;;;;48.80;34.50;;;;;;;2.04;90.63;99574.19;5021041;28;20439;-41
2021/12/28 09:32:59;;;;;;;51.80;32.90;;;;;;;2.07;90.40;99567.78;5022065;28;20468;-40
2021/12/28 09:35:27;;;;;;;47.00;32.20;;;;;;;2.14;90.33;99576.63;5023977;28;20435;-40
2021/12/28 09:37:55;;;;;;;49.77;34.03;;;;;;;2.16;90.71;99572.84;5019393;28;20471;-40
2021/12/28 09:40:27;;;;;;;45.10;32.70;;;;;;;2.21;91.00;99574.97;5020920;28;20427;-40
2021/12/28 09:42:56;;;;;;;47.27;32.30;;;;;;;2.25;91.01;99578.88;5012467;28;20464;-41
2021/12/28 09:45:24;;;;;;;48.33;31.83;;;;;;;2.32;91.16;99569.31;5023738;28;20570;-40
2021/12/28 09:47:53;;;;;;;44.60;30.33;;;;;;;2.40;91.21;99571.91;5019548;28;20476;-40
2021/12/28 09:50:21;;;;;;;42.10;32.87;;;;;;;2.42;91.81;99571.75;5016664;28;20985;-40
2021/12/28 09:52:51;;;;;;;47.03;32.33;;;;;;;2.41;91.94;99565.66;5021057;28;20468;-40
2021/12/28 09:55:22;;;;;;;49.80;33.80;;;;;;;2.43;92.51;99554.94;5011300;28;20433;-40
2021/12/28 09:57:51;;;;;;;46.13;33.50;;;;;;;2.47;92.57;99562.31;5012534;28;21143;-42
2021/12/28 10:00:22;;;;;;;43.07;31.43;;;;;;;2.51;92.54;99568.06;5013262;28;20433;-40
2021/12/28 10:03:11;;;;;;;46.57;33.50;;;;;;;2.57;93.00;99565.53;5012955;28;20458;-41
2021/12/28 10:05:39;;;;;;;55.53;34.50;;;;;;;2.62;92.77;99565.84;5016811;28;20906;-40
2021/12/28 10:08:07;;;;;;;43.07;31.47;;;;;;;2.65;93.06;99562.88;5014359;28;20459;-40
2021/12/28 10:10:38;;;;;;;47.50;34.17;;;;;;;2.66;93.47;99556.59;5016770;28;20515;-40
2021/12/28 10:13:08;;;;;;;52.33;33.50;;;;;;;2.69;93.53;99558.88;5026922;28;20469;-41
2021/12/28 10:15:38;;;;;;;56.40;34.97;;;;;;;2.68;93.64;99556.44;5027420;28;20439;-40
2021/12/28 10:18:09;;;;;;;43.77;33.43;;;;;;;2.76;93.69;99551.09;5020017;28;20466;-40
2021/12/28 10:20:40;;;;;;;47.80;35.07;;;;;;;2.83;93.42;99549.44;5012352;28;20452;-41
2021/12/28 10:23:10;;;;;;;51.27;33.17;;;;;;;2.85;93.82;99549.22;5018018;28;21100;-40
2021/12/28 10:25:40;;;;;;;50.40;34.37;;;;;;;2.87;93.90;99549.91;5016334;28;20839;-39
2021/12/28 10:28:11;;;;;;;47.90;34.30;;;;;;;2.89;93.87;99538.19;5020312;28;20471;-42
2021/12/28 10:30:41;;;;;;;49.30;36.20;;;;;;;2.93;93.85;99541.28;5024146;28;20919;-40
2021/12/28 10:33:11;;;;;;;47.00;33.67;;;;;;;2.99;93.98;99535.28;5016662;28;21091;-40
2021/12/28 10:35:43;;;;;;;47.17;33.87;;;;;;;3.02;93.68;99534.94;5021128;28;20422;-40
2021/12/28 10:38:13;;;;;;;45.43;33.00;;;;;;;3.10;93.82;99527.00;4998944;28;20463;-40
2021/12/28 10:40:43;;;;;;;48.83;33.67;;;;;;;3.09;93.72;99520.91;5024622;28;20473;-41
2021/12/28 10:43:13;;;;;;;46.53;34.20;;;;;;;3.12;93.83;99524.97;5026345;28;20548;-40
2021/12/28 10:45:43;;;;;;;46.97;34.00;;;;;;;3.18;93.55;99526.91;5017886;28;20479;-40
2021/12/28 10:48:16;;;;;;;42.40;31.90;;;;;;;3.26;93.84;99524.19;5017651;28;20514;-42
2021/12/28 10:50:51;;;;;;;47.17;32.67;;;;;;;3.33;93.65;99507.50;5016797;28;20429;-40
2021/12/28 10:53:24;;;;;;;50.43;34.23;;;;;;;3.38;93.24;99508.75;5023118;28;20532;-40
2021/12/28 10:55:57;;;;;;;51.00;33.40;;;;;;;3.49;92.91;99508.34;5028247;28;20815;-42
2021/12/28 10:58:29;;;;;;;55.77;35.47;;;;;;;3.54;92.64;99496.25;5016141;28;20990;-40
2021/12/28 11:01:03;;;;;;;52.00;35.17;;;;;;;3.40;91.75;99494.44;5014831;28;20441;-41
2021/12/28 11:03:34;;;;;;;49.33;32.63;;;;;;;3.24;92.04;99498.03;5023284;28;20465;-40
2021/12/28 11:06:27;;;;;;;44.87;34.00;;;;;;;3.19;92.59;99489.88;5020805;28;20830;-40
2021/12/28 11:08:56;;;;;;;46.13;34.00;;;;;;;3.15;92.86;99493.84;5008738;28;20994;-42
2021/12/28 11:11:28;;;;;;;51.67;34.67;;;;;;;3.16;92.90;99503.38;5016034;28;20516;-41
2021/12/28 11:13:58;;;;;;;51.10;35.90;;;;;;;3.13;93.02;99502.94;5013279;28;20983;-40
2021/12/28 11:16:28;;;;;;;55.37;38.87;;;;;;;3.13;93.26;99490.56;5019454;28;20463;-39
2021/12/28 11:18:58;;;;;;;49.53;35.80;;;;;;;3.02;93.29;99490.16;5025590;28;20464;-40
2021/12/28 11:21:29;;;;;;;48.57;34.03;;;;;;;3.04;93.48;99496.91;5016653;28;20444;-41
2021/12/28 11:24:02;;;;;;;49.33;33.83;;;;;;;3.08;93.52;99486.81;5011946;28;20536;-40
2021/12/28 11:26:32;;;;;;;52.63;35.50;;;;;;;3.10;93.17;99492.75;5013438;28;20482;-42
2021/12/28 11:29:04;;;;;;;49.13;36.57;;;;;;;3.18;93.47;99488.22;5016968;28;20464;-40
2021/12/28 11:31:36;;;;;;;52.43;35.03;;;;;;;3.27;93.66;99484.50;5015597;28;20520;-40